sensor_id;sensor_type;location;lat;lon;timestamp;P1;durP1;ratioP1;P2;durP2;ratioP2
22579;SDS011;11456;47.030;15.396;2023-08-21T00:01:30;15.80;;;11.77;;
22579;SDS011;11456;47.030;15.396;2023-08-21T00:03:56;14.80;;;11.63;;
22579;SDS011;11456;47.030;15.396;2023-08-21T00:06:23;13.48;;;11.20;;
22579;SDS011;11456;47.030;15.396;2023-08-21T00:08:50;14.95;;;11.43;;
22579;SDS011;11456;47.030;15.396;2023-08-21T00:11:16;15.20;;;11.93;;
22579;SDS011;11456;47.030;15.396;2023-08-21T00:13:43;17.40;;;11.77;;
22579;SDS011;11456;47.030;15.396;2023-08-21T00:16:11;13.77;;;11.23;;
22579;SDS011;11456;47.030;15.396;2023-08-21T00:18:38;17.98;;;11.48;;
22579;SDS011;11456;47.030;15.396;2023-08-21T00:21:05;15.80;;;11.60;;
22579;SDS011;11456;47.030;15.396;2023-08-21T00:23:31;18.45;;;11.48;;
22579;SDS011;11456;47.030;15.396;2023-08-21T00:25:58;12.55;;;11.27;;
22579;SDS011;11456;47.030;15.396;2023-08-21T00:28:25;13.80;;;11.52;;
22579;SDS011;11456;47.030;15.396;2023-08-21T00:30:51;13.30;;;11.98;;
22579;SDS011;11456;47.030;15.396;2023-08-21T00:33:27;17.95;;;12.02;;
22579;SDS011;11456;47.030;15.396;2023-08-21T00:35:53;14.07;;;11.40;;
22579;SDS011;11456;47.030;15.396;2023-08-21T00:38:20;14.10;;;11.65;;
22579;SDS011;11456;47.030;15.396;2023-08-21T00:40:47;15.95;;;11.45;;
22579;SDS011;11456;47.030;15.396;2023-08-21T00:43:14;15.95;;;12.30;;
22579;SDS011;11456;47.030;15.396;2023-08-21T00:45:42;15.55;;;12.55;;
22579;SDS011;11456;47.030;15.396;2023-08-21T00:48:11;15.98;;;11.43;;
22579;SDS011;11456;47.030;15.396;2023-08-21T00:50:40;14.00;;;11.35;;
22579;SDS011;11456;47.030;15.396;2023-08-21T00:53:07;16.65;;;12.68;;
22579;SDS011;11456;47.030;15.396;2023-08-21T00:55:34;19.00;;;13.25;;
22579;SDS011;11456;47.030;15.396;2023-08-21T00:58:02;22.55;;;13.45;;
22579;SDS011;11456;47.030;15.396;2023-08-21T01:00:30;24.02;;;15.52;;
22579;SDS011;11456;47.030;15.396;2023-08-21T01:02:57;20.27;;;14.30;;
22579;SDS011;11456;47.030;15.396;2023-08-21T01:05:24;22.38;;;14.02;;
22579;SDS011;11456;47.030;15.396;2023-08-21T01:07:59;19.27;;;13.32;;
22579;SDS011;11456;47.030;15.396;2023-08-21T01:10:35;15.88;;;13.52;;
22579;SDS011;11456;47.030;15.396;2023-08-21T01:16:08;19.08;;;13.73;;
22579;SDS011;11456;47.030;15.396;2023-08-21T01:18:36;16.33;;;13.50;;
22579;SDS011;11456;47.030;15.396;2023-08-21T01:21:05;18.38;;;13.68;;
22579;SDS011;11456;47.030;15.396;2023-08-21T01:23:35;17.13;;;13.38;;
22579;SDS011;11456;47.030;15.396;2023-08-21T01:26:03;26.55;;;13.77;;
22579;SDS011;11456;47.030;15.396;2023-08-21T01:28:31;16.50;;;13.55;;
22579;SDS011;11456;47.030;15.396;2023-08-21T01:31:04;19.23;;;13.70;;
22579;SDS011;11456;47.030;15.396;2023-08-21T01:34:00;16.77;;;13.85;;
22579;SDS011;11456;47.030;15.396;2023-08-21T01:36:30;16.95;;;13.30;;
22579;SDS011;11456;47.030;15.396;2023-08-21T01:38:57;22.25;;;13.93;;
22579;SDS011;11456;47.030;15.396;2023-08-21T01:41:25;18.55;;;14.07;;
22579;SDS011;11456;47.030;15.396;2023-08-21T01:43:53;17.50;;;13.32;;
22579;SDS011;11456;47.030;15.396;2023-08-21T01:46:19;15.63;;;13.60;;
22579;SDS011;11456;47.030;15.396;2023-08-21T01:48:47;20.20;;;13.35;;
22579;SDS011;11456;47.030;15.396;2023-08-21T01:51:14;14.80;;;12.35;;
22579;SDS011;11456;47.030;15.396;2023-08-21T01:53:41;17.10;;;12.43;;
22579;SDS011;11456;47.030;15.396;2023-08-21T01:56:07;15.38;;;12.82;;
22579;SDS011;11456;47.030;15.396;2023-08-21T01:58:34;17.25;;;12.85;;
22579;SDS011;11456;47.030;15.396;2023-08-21T02:01:01;13.48;;;12.07;;
22579;SDS011;11456;47.030;15.396;2023-08-21T02:03:27;15.15;;;12.70;;
22579;SDS011;11456;47.030;15.396;2023-08-21T02:05:57;19.27;;;13.43;;
22579;SDS011;11456;47.030;15.396;2023-08-21T02:08:27;18.50;;;12.85;;
22579;SDS011;11456;47.030;15.396;2023-08-21T02:10:58;16.10;;;12.73;;
22579;SDS011;11456;47.030;15.396;2023-08-21T02:13:25;17.75;;;13.10;;
22579;SDS011;11456;47.030;15.396;2023-08-21T02:15:52;16.00;;;13.32;;
22579;SDS011;11456;47.030;15.396;2023-08-21T02:18:18;18.50;;;11.98;;
22579;SDS011;11456;47.030;15.396;2023-08-21T02:20:46;15.65;;;12.63;;
22579;SDS011;11456;47.030;15.396;2023-08-21T02:23:14;15.30;;;12.50;;
22579;SDS011;11456;47.030;15.396;2023-08-21T02:25:40;14.10;;;12.38;;
22579;SDS011;11456;47.030;15.396;2023-08-21T02:28:07;18.35;;;12.63;;
22579;SDS011;11456;47.030;15.396;2023-08-21T02:30:34;19.60;;;13.48;;
22579;SDS011;11456;47.030;15.396;2023-08-21T02:33:01;13.43;;;12.02;;
22579;SDS011;11456;47.030;15.396;2023-08-21T02:35:27;14.02;;;12.30;;
22579;SDS011;11456;47.030;15.396;2023-08-21T02:37:54;17.35;;;12.77;;
22579;SDS011;11456;47.030;15.396;2023-08-21T02:40:21;19.40;;;12.65;;
22579;SDS011;11456;47.030;15.396;2023-08-21T02:42:47;16.20;;;12.38;;
22579;SDS011;11456;47.030;15.396;2023-08-21T02:45:14;18.10;;;12.20;;
22579;SDS011;11456;47.030;15.396;2023-08-21T02:47:41;17.48;;;12.68;;
22579;SDS011;11456;47.030;15.396;2023-08-21T02:50:10;16.17;;;12.90;;
22579;SDS011;11456;47.030;15.396;2023-08-21T02:52:37;15.32;;;12.07;;
22579;SDS011;11456;47.030;15.396;2023-08-21T02:55:05;17.90;;;12.70;;
22579;SDS011;11456;47.030;15.396;2023-08-21T02:57:32;14.82;;;12.40;;
22579;SDS011;11456;47.030;15.396;2023-08-21T02:59:58;14.38;;;12.65;;
22579;SDS011;11456;47.030;15.396;2023-08-21T03:02:25;23.02;;;13.02;;
22579;SDS011;11456;47.030;15.396;2023-08-21T03:04:52;15.50;;;12.57;;
22579;SDS011;11456;47.030;15.396;2023-08-21T03:07:19;15.00;;;12.63;;
22579;SDS011;11456;47.030;15.396;2023-08-21T03:09:46;18.80;;;13.85;;
22579;SDS011;11456;47.030;15.396;2023-08-21T03:12:13;17.85;;;13.50;;
22579;SDS011;11456;47.030;15.396;2023-08-21T03:14:40;15.40;;;12.75;;
22579;SDS011;11456;47.030;15.396;2023-08-21T03:17:08;14.40;;;12.88;;
22579;SDS011;11456;47.030;15.396;2023-08-21T03:19:35;15.02;;;12.30;;
22579;SDS011;11456;47.030;15.396;2023-08-21T03:22:01;18.77;;;13.10;;
22579;SDS011;11456;47.030;15.396;2023-08-21T03:24:28;15.93;;;13.02;;
22579;SDS011;11456;47.030;15.396;2023-08-21T03:26:55;18.63;;;13.05;;
22579;SDS011;11456;47.030;15.396;2023-08-21T03:29:22;15.70;;;12.50;;
22579;SDS011;11456;47.030;15.396;2023-08-21T03:31:48;19.20;;;13.48;;
22579;SDS011;11456;47.030;15.396;2023-08-21T03:34:16;22.35;;;12.48;;
22579;SDS011;11456;47.030;15.396;2023-08-21T03:36:42;14.73;;;13.15;;
22579;SDS011;11456;47.030;15.396;2023-08-21T03:39:09;18.80;;;13.05;;
22579;SDS011;11456;47.030;15.396;2023-08-21T03:44:08;18.52;;;13.65;;
22579;SDS011;11456;47.030;15.396;2023-08-21T03:46:35;18.48;;;13.15;;
22579;SDS011;11456;47.030;15.396;2023-08-21T03:49:02;14.57;;;12.70;;
22579;SDS011;11456;47.030;15.396;2023-08-21T03:51:28;21.20;;;13.75;;
22579;SDS011;11456;47.030;15.396;2023-08-21T03:53:55;19.98;;;12.95;;
22579;SDS011;11456;47.030;15.396;2023-08-21T03:56:22;16.17;;;13.60;;
22579;SDS011;11456;47.030;15.396;2023-08-21T03:58:50;15.98;;;12.55;;
22579;SDS011;11456;47.030;15.396;2023-08-21T04:01:16;14.07;;;12.50;;
22579;SDS011;11456;47.030;15.396;2023-08-21T04:03:43;18.38;;;12.85;;
22579;SDS011;11456;47.030;15.396;2023-08-21T04:06:11;17.40;;;13.57;;
22579;SDS011;11456;47.030;15.396;2023-08-21T04:08:38;14.70;;;11.65;;
22579;SDS011;11456;47.030;15.396;2023-08-21T04:11:05;17.55;;;12.60;;
22579;SDS011;11456;47.030;15.396;2023-08-21T04:13:32;19.67;;;12.68;;
22579;SDS011;11456;47.030;15.396;2023-08-21T04:15:59;15.15;;;12.85;;
22579;SDS011;11456;47.030;15.396;2023-08-21T04:18:26;14.52;;;12.45;;
22579;SDS011;11456;47.030;15.396;2023-08-21T04:21:06;19.35;;;13.77;;
22579;SDS011;11456;47.030;15.396;2023-08-21T04:23:33;18.17;;;13.88;;
22579;SDS011;11456;47.030;15.396;2023-08-21T04:26:00;19.67;;;13.15;;
22579;SDS011;11456;47.030;15.396;2023-08-21T04:28:30;15.30;;;13.18;;
22579;SDS011;11456;47.030;15.396;2023-08-21T04:30:57;19.92;;;13.55;;
22579;SDS011;11456;47.030;15.396;2023-08-21T04:33:25;23.90;;;13.18;;
22579;SDS011;11456;47.030;15.396;2023-08-21T04:35:52;18.23;;;12.73;;
22579;SDS011;11456;47.030;15.396;2023-08-21T04:38:19;16.73;;;12.68;;
22579;SDS011;11456;47.030;15.396;2023-08-21T04:40:46;21.08;;;13.57;;
22579;SDS011;11456;47.030;15.396;2023-08-21T04:43:13;20.60;;;12.38;;
22579;SDS011;11456;47.030;15.396;2023-08-21T04:45:50;14.07;;;12.55;;
22579;SDS011;11456;47.030;15.396;2023-08-21T04:48:22;14.57;;;12.55;;
22579;SDS011;11456;47.030;15.396;2023-08-21T04:50:48;19.55;;;13.43;;
22579;SDS011;11456;47.030;15.396;2023-08-21T04:53:16;17.48;;;13.95;;
22579;SDS011;11456;47.030;15.396;2023-08-21T04:55:44;18.00;;;13.43;;
22579;SDS011;11456;47.030;15.396;2023-08-21T04:58:12;18.25;;;12.70;;
22579;SDS011;11456;47.030;15.396;2023-08-21T05:00:39;17.05;;;13.10;;
22579;SDS011;11456;47.030;15.396;2023-08-21T05:03:06;15.90;;;13.20;;
22579;SDS011;11456;47.030;15.396;2023-08-21T05:05:36;20.02;;;13.90;;
22579;SDS011;11456;47.030;15.396;2023-08-21T05:08:03;17.83;;;13.63;;
22579;SDS011;11456;47.030;15.396;2023-08-21T05:10:30;19.35;;;13.45;;
22579;SDS011;11456;47.030;15.396;2023-08-21T05:12:58;16.50;;;13.00;;
22579;SDS011;11456;47.030;15.396;2023-08-21T05:15:24;17.48;;;14.35;;
22579;SDS011;11456;47.030;15.396;2023-08-21T05:17:51;22.30;;;16.92;;
22579;SDS011;11456;47.030;15.396;2023-08-21T05:20:19;22.45;;;18.42;;
22579;SDS011;11456;47.030;15.396;2023-08-21T05:22:47;26.85;;;17.73;;
22579;SDS011;11456;47.030;15.396;2023-08-21T05:25:14;31.48;;;18.05;;
22579;SDS011;11456;47.030;15.396;2023-08-21T05:27:41;25.48;;;17.08;;
22579;SDS011;11456;47.030;15.396;2023-08-21T05:30:08;24.02;;;16.88;;
22579;SDS011;11456;47.030;15.396;2023-08-21T05:32:37;22.65;;;17.10;;
22579;SDS011;11456;47.030;15.396;2023-08-21T05:35:04;20.85;;;16.35;;
22579;SDS011;11456;47.030;15.396;2023-08-21T05:37:31;21.50;;;17.17;;
22579;SDS011;11456;47.030;15.396;2023-08-21T05:39:58;26.50;;;16.25;;
22579;SDS011;11456;47.030;15.396;2023-08-21T05:42:25;22.48;;;15.85;;
22579;SDS011;11456;47.030;15.396;2023-08-21T05:44:53;21.13;;;16.13;;
22579;SDS011;11456;47.030;15.396;2023-08-21T05:47:21;22.00;;;15.85;;
22579;SDS011;11456;47.030;15.396;2023-08-21T05:49:50;23.33;;;16.08;;
22579;SDS011;11456;47.030;15.396;2023-08-21T05:52:17;18.52;;;15.43;;
22579;SDS011;11456;47.030;15.396;2023-08-21T05:54:43;26.00;;;16.65;;
22579;SDS011;11456;47.030;15.396;2023-08-21T05:57:10;19.63;;;15.65;;
22579;SDS011;11456;47.030;15.396;2023-08-21T05:59:42;24.98;;;16.48;;
22579;SDS011;11456;47.030;15.396;2023-08-21T06:02:10;25.50;;;15.77;;
22579;SDS011;11456;47.030;15.396;2023-08-21T06:04:37;18.33;;;14.85;;
22579;SDS011;11456;47.030;15.396;2023-08-21T06:07:07;19.33;;;14.95;;
22579;SDS011;11456;47.030;15.396;2023-08-21T06:09:34;16.45;;;14.50;;
22579;SDS011;11456;47.030;15.396;2023-08-21T06:12:05;17.27;;;15.32;;
22579;SDS011;11456;47.030;15.396;2023-08-21T06:14:33;19.75;;;15.02;;
22579;SDS011;11456;47.030;15.396;2023-08-21T06:17:02;22.63;;;14.63;;
22579;SDS011;11456;47.030;15.396;2023-08-21T06:19:30;20.02;;;13.65;;
22579;SDS011;11456;47.030;15.396;2023-08-21T06:21:57;19.00;;;13.77;;
22579;SDS011;11456;47.030;15.396;2023-08-21T06:24:24;21.63;;;13.52;;
22579;SDS011;11456;47.030;15.396;2023-08-21T06:26:56;28.48;;;13.95;;
22579;SDS011;11456;47.030;15.396;2023-08-21T06:29:22;23.95;;;14.20;;
22579;SDS011;11456;47.030;15.396;2023-08-21T06:31:50;20.95;;;13.20;;
22579;SDS011;11456;47.030;15.396;2023-08-21T06:34:17;18.15;;;13.68;;
22579;SDS011;11456;47.030;15.396;2023-08-21T06:36:43;18.00;;;14.02;;
22579;SDS011;11456;47.030;15.396;2023-08-21T06:39:10;20.83;;;13.50;;
22579;SDS011;11456;47.030;15.396;2023-08-21T06:41:37;19.75;;;12.38;;
22579;SDS011;11456;47.030;15.396;2023-08-21T06:44:03;18.90;;;12.75;;
22579;SDS011;11456;47.030;15.396;2023-08-21T06:46:30;21.70;;;12.77;;
22579;SDS011;11456;47.030;15.396;2023-08-21T06:48:57;17.83;;;13.02;;
22579;SDS011;11456;47.030;15.396;2023-08-21T06:51:24;18.33;;;12.98;;
22579;SDS011;11456;47.030;15.396;2023-08-21T06:53:50;20.45;;;12.52;;
22579;SDS011;11456;47.030;15.396;2023-08-21T06:56:17;17.70;;;12.55;;
22579;SDS011;11456;47.030;15.396;2023-08-21T06:58:44;17.70;;;11.77;;
22579;SDS011;11456;47.030;15.396;2023-08-21T07:01:10;22.45;;;12.20;;
22579;SDS011;11456;47.030;15.396;2023-08-21T07:03:37;18.70;;;10.85;;
22579;SDS011;11456;47.030;15.396;2023-08-21T07:06:04;15.40;;;11.52;;
22579;SDS011;11456;47.030;15.396;2023-08-21T07:08:31;18.02;;;11.18;;
22579;SDS011;11456;47.030;15.396;2023-08-21T07:10:57;15.32;;;10.60;;
22579;SDS011;11456;47.030;15.396;2023-08-21T07:13:24;16.23;;;10.95;;
22579;SDS011;11456;47.030;15.396;2023-08-21T07:15:52;23.23;;;10.70;;
22579;SDS011;11456;47.030;15.396;2023-08-21T07:18:21;28.05;;;11.70;;
22579;SDS011;11456;47.030;15.396;2023-08-21T07:20:51;17.17;;;10.95;;
22579;SDS011;11456;47.030;15.396;2023-08-21T07:23:19;16.38;;;10.68;;
22579;SDS011;11456;47.030;15.396;2023-08-21T07:25:45;15.52;;;10.38;;
22579;SDS011;11456;47.030;15.396;2023-08-21T07:28:12;21.10;;;11.20;;
22579;SDS011;11456;47.030;15.396;2023-08-21T07:30:39;16.80;;;10.55;;
22579;SDS011;11456;47.030;15.396;2023-08-21T07:33:06;29.38;;;11.05;;
22579;SDS011;11456;47.030;15.396;2023-08-21T07:35:33;20.48;;;10.70;;
22579;SDS011;11456;47.030;15.396;2023-08-21T07:37:59;21.70;;;10.75;;
22579;SDS011;11456;47.030;15.396;2023-08-21T07:40:26;20.50;;;10.70;;
22579;SDS011;11456;47.030;15.396;2023-08-21T07:42:53;28.20;;;11.25;;
22579;SDS011;11456;47.030;15.396;2023-08-21T07:45:19;23.10;;;10.48;;
22579;SDS011;11456;47.030;15.396;2023-08-21T07:47:46;27.17;;;10.25;;
22579;SDS011;11456;47.030;15.396;2023-08-21T07:50:26;24.13;;;10.75;;
22579;SDS011;11456;47.030;15.396;2023-08-21T07:52:53;28.70;;;10.43;;
22579;SDS011;11456;47.030;15.396;2023-08-21T07:55:19;21.13;;;10.10;;
22579;SDS011;11456;47.030;15.396;2023-08-21T07:57:46;22.08;;;9.48;;
22579;SDS011;11456;47.030;15.396;2023-08-21T08:00:14;27.90;;;10.38;;
22579;SDS011;11456;47.030;15.396;2023-08-21T08:02:42;33.28;;;10.05;;
22579;SDS011;11456;47.030;15.396;2023-08-21T08:05:09;30.95;;;10.13;;
22579;SDS011;11456;47.030;15.396;2023-08-21T08:07:36;33.80;;;10.10;;
22579;SDS011;11456;47.030;15.396;2023-08-21T08:10:03;26.80;;;10.05;;
22579;SDS011;11456;47.030;15.396;2023-08-21T08:12:30;30.73;;;9.77;;
22579;SDS011;11456;47.030;15.396;2023-08-21T08:14:59;22.55;;;9.52;;
22579;SDS011;11456;47.030;15.396;2023-08-21T08:17:26;29.75;;;9.90;;
22579;SDS011;11456;47.030;15.396;2023-08-21T08:19:52;24.20;;;9.80;;
22579;SDS011;11456;47.030;15.396;2023-08-21T08:22:19;27.58;;;9.70;;
22579;SDS011;11456;47.030;15.396;2023-08-21T08:24:46;23.75;;;9.75;;
22579;SDS011;11456;47.030;15.396;2023-08-21T08:27:12;21.77;;;9.63;;
22579;SDS011;11456;47.030;15.396;2023-08-21T08:29:39;30.27;;;10.23;;
22579;SDS011;11456;47.030;15.396;2023-08-21T08:32:06;21.48;;;10.43;;
22579;SDS011;11456;47.030;15.396;2023-08-21T08:34:32;26.05;;;9.65;;
22579;SDS011;11456;47.030;15.396;2023-08-21T08:36:59;17.08;;;9.93;;
22579;SDS011;11456;47.030;15.396;2023-08-21T08:39:26;21.35;;;10.20;;
22579;SDS011;11456;47.030;15.396;2023-08-21T08:41:58;12.77;;;8.75;;
22579;SDS011;11456;47.030;15.396;2023-08-21T08:44:29;18.02;;;9.60;;
22579;SDS011;11456;47.030;15.396;2023-08-21T08:46:56;19.88;;;9.20;;
22579;SDS011;11456;47.030;15.396;2023-08-21T08:49:24;14.18;;;8.77;;
22579;SDS011;11456;47.030;15.396;2023-08-21T08:51:51;14.48;;;8.65;;
22579;SDS011;11456;47.030;15.396;2023-08-21T08:54:20;9.85;;;8.60;;
22579;SDS011;11456;47.030;15.396;2023-08-21T08:56:48;14.82;;;8.55;;
22579;SDS011;11456;47.030;15.396;2023-08-21T08:59:15;9.68;;;8.50;;
22579;SDS011;11456;47.030;15.396;2023-08-21T09:01:42;12.43;;;8.23;;
22579;SDS011;11456;47.030;15.396;2023-08-21T09:04:09;14.07;;;8.55;;
22579;SDS011;11456;47.030;15.396;2023-08-21T09:06:37;15.70;;;8.40;;
22579;SDS011;11456;47.030;15.396;2023-08-21T09:09:04;11.85;;;7.97;;
22579;SDS011;11456;47.030;15.396;2023-08-21T09:11:33;12.27;;;8.18;;
22579;SDS011;11456;47.030;15.396;2023-08-21T09:14:00;13.00;;;7.78;;
22579;SDS011;11456;47.030;15.396;2023-08-21T09:16:26;13.27;;;7.53;;
22579;SDS011;11456;47.030;15.396;2023-08-21T09:18:54;12.10;;;7.45;;
22579;SDS011;11456;47.030;15.396;2023-08-21T09:21:24;12.43;;;7.50;;
22579;SDS011;11456;47.030;15.396;2023-08-21T09:23:57;9.32;;;7.20;;
22579;SDS011;11456;47.030;15.396;2023-08-21T09:26:36;9.40;;;7.63;;
22579;SDS011;11456;47.030;15.396;2023-08-21T09:29:04;12.68;;;7.70;;
22579;SDS011;11456;47.030;15.396;2023-08-21T09:31:32;13.02;;;7.40;;
22579;SDS011;11456;47.030;15.396;2023-08-21T09:34:02;21.40;;;7.43;;
22579;SDS011;11456;47.030;15.396;2023-08-21T09:36:33;8.32;;;6.68;;
22579;SDS011;11456;47.030;15.396;2023-08-21T09:39:00;8.43;;;6.68;;
22579;SDS011;11456;47.030;15.396;2023-08-21T09:41:27;13.45;;;6.28;;
22579;SDS011;11456;47.030;15.396;2023-08-21T09:43:58;12.20;;;6.72;;
22579;SDS011;11456;47.030;15.396;2023-08-21T09:46:25;16.73;;;7.05;;
22579;SDS011;11456;47.030;15.396;2023-08-21T09:48:53;14.65;;;6.60;;
22579;SDS011;11456;47.030;15.396;2023-08-21T09:51:20;16.38;;;6.93;;
22579;SDS011;11456;47.030;15.396;2023-08-21T09:53:50;10.32;;;6.40;;
22579;SDS011;11456;47.030;15.396;2023-08-21T09:56:20;14.80;;;6.47;;
22579;SDS011;11456;47.030;15.396;2023-08-21T09:58:50;14.90;;;7.00;;
22579;SDS011;11456;47.030;15.396;2023-08-21T10:01:17;17.23;;;6.80;;
22579;SDS011;11456;47.030;15.396;2023-08-21T10:03:48;13.77;;;7.07;;
22579;SDS011;11456;47.030;15.396;2023-08-21T10:06:16;15.95;;;6.72;;
22579;SDS011;11456;47.030;15.396;2023-08-21T10:08:48;11.13;;;6.70;;
22579;SDS011;11456;47.030;15.396;2023-08-21T10:11:20;11.85;;;6.30;;
22579;SDS011;11456;47.030;15.396;2023-08-21T10:13:47;10.52;;;6.50;;
22579;SDS011;11456;47.030;15.396;2023-08-21T10:16:16;12.77;;;6.25;;
22579;SDS011;11456;47.030;15.396;2023-08-21T10:18:44;9.88;;;6.30;;
22579;SDS011;11456;47.030;15.396;2023-08-21T10:21:19;12.65;;;6.43;;
22579;SDS011;11456;47.030;15.396;2023-08-21T10:23:47;8.45;;;6.22;;
22579;SDS011;11456;47.030;15.396;2023-08-21T10:26:15;9.50;;;6.57;;
22579;SDS011;11456;47.030;15.396;2023-08-21T10:28:52;11.80;;;6.57;;
22579;SDS011;11456;47.030;15.396;2023-08-21T10:31:36;11.90;;;6.15;;
22579;SDS011;11456;47.030;15.396;2023-08-21T10:34:07;12.48;;;6.07;;
22579;SDS011;11456;47.030;15.396;2023-08-21T10:39:30;12.07;;;5.65;;
22579;SDS011;11456;47.030;15.396;2023-08-21T10:44:33;15.25;;;5.88;;
22579;SDS011;11456;47.030;15.396;2023-08-21T10:49:54;9.85;;;6.03;;
22579;SDS011;11456;47.030;15.396;2023-08-21T10:52:29;15.60;;;5.65;;
22579;SDS011;11456;47.030;15.396;2023-08-21T10:54:59;9.27;;;5.70;;
22579;SDS011;11456;47.030;15.396;2023-08-21T10:57:27;9.30;;;5.50;;
22579;SDS011;11456;47.030;15.396;2023-08-21T11:00:17;10.90;;;5.20;;
22579;SDS011;11456;47.030;15.396;2023-08-21T11:02:44;6.82;;;4.75;;
22579;SDS011;11456;47.030;15.396;2023-08-21T11:05:13;6.72;;;5.50;;
22579;SDS011;11456;47.030;15.396;2023-08-21T11:07:42;8.82;;;5.00;;
22579;SDS011;11456;47.030;15.396;2023-08-21T11:10:46;13.43;;;5.40;;
22579;SDS011;11456;47.030;15.396;2023-08-21T11:13:06;6.90;;;4.95;;
22579;SDS011;11456;47.030;15.396;2023-08-21T11:15:33;7.05;;;5.22;;
22579;SDS011;11456;47.030;15.396;2023-08-21T11:18:00;7.85;;;4.90;;
22579;SDS011;11456;47.030;15.396;2023-08-21T11:20:35;7.47;;;4.88;;
22579;SDS011;11456;47.030;15.396;2023-08-21T11:23:06;7.00;;;4.65;;
22579;SDS011;11456;47.030;15.396;2023-08-21T11:25:34;8.95;;;4.65;;
22579;SDS011;11456;47.030;15.396;2023-08-21T11:28:06;12.15;;;4.50;;
22579;SDS011;11456;47.030;15.396;2023-08-21T11:30:34;8.48;;;4.40;;
22579;SDS011;11456;47.030;15.396;2023-08-21T11:33:06;11.38;;;4.35;;
22579;SDS011;11456;47.030;15.396;2023-08-21T11:35:40;7.75;;;4.25;;
22579;SDS011;11456;47.030;15.396;2023-08-21T11:38:14;10.70;;;4.30;;
22579;SDS011;11456;47.030;15.396;2023-08-21T11:41:18;12.93;;;4.35;;
22579;SDS011;11456;47.030;15.396;2023-08-21T11:43:39;13.18;;;5.10;;
22579;SDS011;11456;47.030;15.396;2023-08-21T11:46:07;12.27;;;4.50;;
22579;SDS011;11456;47.030;15.396;2023-08-21T11:48:37;10.07;;;4.20;;
22579;SDS011;11456;47.030;15.396;2023-08-21T11:51:05;8.65;;;4.40;;
22579;SDS011;11456;47.030;15.396;2023-08-21T11:53:39;9.98;;;4.68;;
22579;SDS011;11456;47.030;15.396;2023-08-21T11:56:14;10.93;;;4.68;;
22579;SDS011;11456;47.030;15.396;2023-08-21T11:58:47;17.02;;;5.05;;
22579;SDS011;11456;47.030;15.396;2023-08-21T12:01:18;9.95;;;4.97;;
22579;SDS011;11456;47.030;15.396;2023-08-21T12:03:46;13.10;;;4.60;;
22579;SDS011;11456;47.030;15.396;2023-08-21T12:06:21;8.27;;;4.35;;
22579;SDS011;11456;47.030;15.396;2023-08-21T12:08:48;14.75;;;4.20;;
22579;SDS011;11456;47.030;15.396;2023-08-21T12:11:14;5.60;;;4.07;;
22579;SDS011;11456;47.030;15.396;2023-08-21T12:13:41;9.75;;;4.53;;
22579;SDS011;11456;47.030;15.396;2023-08-21T12:16:08;8.65;;;4.28;;
22579;SDS011;11456;47.030;15.396;2023-08-21T12:18:35;10.80;;;4.30;;
22579;SDS011;11456;47.030;15.396;2023-08-21T12:21:01;11.52;;;4.15;;
22579;SDS011;11456;47.030;15.396;2023-08-21T12:23:28;12.05;;;4.38;;
22579;SDS011;11456;47.030;15.396;2023-08-21T12:25:55;7.25;;;4.13;;
22579;SDS011;11456;47.030;15.396;2023-08-21T12:28:21;6.45;;;4.03;;
22579;SDS011;11456;47.030;15.396;2023-08-21T12:30:48;10.75;;;4.45;;
22579;SDS011;11456;47.030;15.396;2023-08-21T12:33:15;9.40;;;3.80;;
22579;SDS011;11456;47.030;15.396;2023-08-21T12:35:49;10.07;;;4.18;;
22579;SDS011;11456;47.030;15.396;2023-08-21T12:38:16;13.02;;;4.10;;
22579;SDS011;11456;47.030;15.396;2023-08-21T12:40:42;7.90;;;4.40;;
22579;SDS011;11456;47.030;15.396;2023-08-21T12:43:09;14.02;;;4.07;;
22579;SDS011;11456;47.030;15.396;2023-08-21T12:45:36;9.02;;;4.13;;
22579;SDS011;11456;47.030;15.396;2023-08-21T12:48:03;8.30;;;3.60;;
22579;SDS011;11456;47.030;15.396;2023-08-21T12:50:30;8.13;;;3.72;;
22579;SDS011;11456;47.030;15.396;2023-08-21T12:52:57;4.90;;;3.85;;
22579;SDS011;11456;47.030;15.396;2023-08-21T12:55:24;13.90;;;4.00;;
22579;SDS011;11456;47.030;15.396;2023-08-21T12:57:50;10.65;;;4.07;;
22579;SDS011;11456;47.030;15.396;2023-08-21T13:00:17;8.10;;;3.50;;
22579;SDS011;11456;47.030;15.396;2023-08-21T13:02:44;8.60;;;3.70;;
22579;SDS011;11456;47.030;15.396;2023-08-21T13:05:10;9.73;;;4.07;;
22579;SDS011;11456;47.030;15.396;2023-08-21T13:07:37;7.25;;;3.80;;
22579;SDS011;11456;47.030;15.396;2023-08-21T13:10:04;10.10;;;4.25;;
22579;SDS011;11456;47.030;15.396;2023-08-21T13:12:31;11.13;;;3.88;;
22579;SDS011;11456;47.030;15.396;2023-08-21T13:14:58;9.02;;;4.35;;
22579;SDS011;11456;47.030;15.396;2023-08-21T13:17:25;7.95;;;3.80;;
22579;SDS011;11456;47.030;15.396;2023-08-21T13:19:52;10.38;;;3.90;;
22579;SDS011;11456;47.030;15.396;2023-08-21T13:22:18;8.40;;;3.95;;
22579;SDS011;11456;47.030;15.396;2023-08-21T13:24:45;8.15;;;4.00;;
22579;SDS011;11456;47.030;15.396;2023-08-21T13:27:12;5.93;;;3.60;;
22579;SDS011;11456;47.030;15.396;2023-08-21T13:29:38;10.90;;;3.83;;
22579;SDS011;11456;47.030;15.396;2023-08-21T13:32:06;8.90;;;3.80;;
22579;SDS011;11456;47.030;15.396;2023-08-21T13:34:33;12.48;;;3.80;;
22579;SDS011;11456;47.030;15.396;2023-08-21T13:37:00;13.93;;;3.83;;
22579;SDS011;11456;47.030;15.396;2023-08-21T13:39:26;7.82;;;3.60;;
22579;SDS011;11456;47.030;15.396;2023-08-21T13:41:53;9.02;;;3.75;;
22579;SDS011;11456;47.030;15.396;2023-08-21T13:44:20;6.68;;;4.10;;
22579;SDS011;11456;47.030;15.396;2023-08-21T13:46:46;5.55;;;3.80;;
22579;SDS011;11456;47.030;15.396;2023-08-21T13:49:13;7.57;;;3.47;;
22579;SDS011;11456;47.030;15.396;2023-08-21T13:51:40;12.35;;;4.00;;
22579;SDS011;11456;47.030;15.396;2023-08-21T13:54:07;10.13;;;4.20;;
22579;SDS011;11456;47.030;15.396;2023-08-21T13:56:34;11.45;;;4.22;;
22579;SDS011;11456;47.030;15.396;2023-08-21T13:59:00;7.97;;;4.00;;
22579;SDS011;11456;47.030;15.396;2023-08-21T14:01:27;7.80;;;4.10;;
22579;SDS011;11456;47.030;15.396;2023-08-21T14:03:54;11.50;;;4.30;;
22579;SDS011;11456;47.030;15.396;2023-08-21T14:06:21;12.27;;;4.60;;
22579;SDS011;11456;47.030;15.396;2023-08-21T14:08:47;6.82;;;4.03;;
22579;SDS011;11456;47.030;15.396;2023-08-21T14:11:14;9.65;;;4.30;;
22579;SDS011;11456;47.030;15.396;2023-08-21T14:13:41;7.85;;;4.15;;
22579;SDS011;11456;47.030;15.396;2023-08-21T14:16:08;8.82;;;4.40;;
22579;SDS011;11456;47.030;15.396;2023-08-21T14:18:34;15.85;;;4.70;;
22579;SDS011;11456;47.030;15.396;2023-08-21T14:21:01;9.15;;;4.75;;
22579;SDS011;11456;47.030;15.396;2023-08-21T14:23:28;10.00;;;4.50;;
22579;SDS011;11456;47.030;15.396;2023-08-21T14:25:59;14.52;;;4.50;;
22579;SDS011;11456;47.030;15.396;2023-08-21T14:28:26;5.60;;;4.32;;
22579;SDS011;11456;47.030;15.396;2023-08-21T14:30:52;10.35;;;4.40;;
22579;SDS011;11456;47.030;15.396;2023-08-21T14:33:20;13.65;;;4.90;;
22579;SDS011;11456;47.030;15.396;2023-08-21T14:35:47;8.85;;;4.80;;